createdAt,value
2022-09-09T00:00:17.249Z,22.30
2022-09-09T00:02:47.287Z,22.30
2022-09-09T00:05:20.045Z,22.30
2022-09-09T00:07:49.770Z,22.30
2022-09-09T00:10:23.324Z,22.30
2022-09-09T00:12:57.345Z,22.30
2022-09-09T00:15:26.704Z,22.30
2022-09-09T00:17:56.333Z,22.30
2022-09-09T00:20:27.974Z,22.30
2022-09-09T00:23:00.565Z,22.30
2022-09-09T00:25:32.238Z,22.30
2022-09-09T00:28:00.423Z,22.30
2022-09-09T00:30:29.341Z,22.30
2022-09-09T00:33:00.469Z,22.30
2022-09-09T00:35:29.947Z,22.30
2022-09-09T00:37:59.240Z,22.30
2022-09-09T00:40:31.703Z,22.30
2022-09-09T00:43:28.658Z,22.30
2022-09-09T00:46:10.045Z,22.20
2022-09-09T00:48:43.822Z,22.20
2022-09-09T00:51:15.704Z,22.20
2022-09-09T00:53:59.895Z,22.20
2022-09-09T00:56:31.369Z,22.20
2022-09-09T00:59:02.598Z,22.20
2022-09-09T01:01:30.876Z,22.20
2022-09-09T01:04:00.696Z,22.20
2022-09-09T01:06:31.910Z,22.20
2022-09-09T01:09:16.810Z,22.20
2022-09-09T01:11:52.073Z,22.20
2022-09-09T01:14:29.835Z,22.20
2022-09-09T01:16:58.885Z,22.20
2022-09-09T01:19:40.329Z,22.20
2022-09-09T01:22:12.629Z,22.20
2022-09-09T01:24:41.622Z,22.20
2022-09-09T01:27:11.205Z,22.20
2022-09-09T01:29:39.399Z,22.20
2022-09-09T01:32:37.276Z,22.20
2022-09-09T01:35:06.195Z,22.20
2022-09-09T01:37:34.404Z,22.20
2022-09-09T01:40:02.787Z,22.20
2022-09-09T01:42:32.445Z,22.20
2022-09-09T01:45:00.681Z,22.20
2022-09-09T01:47:28.910Z,22.20
2022-09-09T01:49:57.109Z,22.20
2022-09-09T01:52:25.467Z,22.10
2022-09-09T01:54:53.641Z,22.10
2022-09-09T01:57:23.458Z,22.10
2022-09-09T02:00:09.160Z,22.20
2022-09-09T02:02:38.842Z,22.20
2022-09-09T02:05:13.292Z,22.20
2022-09-09T02:07:42.471Z,22.10
2022-09-09T02:10:12.560Z,22.10
2022-09-09T02:12:42.544Z,22.10
2022-09-09T02:15:15.707Z,22.10
2022-09-09T02:17:44.361Z,22.20
2022-09-09T02:20:15.396Z,22.10
2022-09-09T02:22:45.209Z,22.10
2022-09-09T02:25:15.170Z,22.10
2022-09-09T02:27:47.103Z,22.10
2022-09-09T02:30:16.962Z,22.10
2022-09-09T02:32:45.228Z,22.10
2022-09-09T02:35:15.475Z,22.10
2022-09-09T02:37:45.420Z,22.10
2022-09-09T02:40:14.510Z,22.10
2022-09-09T02:42:42.804Z,22.10
2022-09-09T02:45:11.944Z,22.10
2022-09-09T02:47:43.231Z,22.10
2022-09-09T02:50:14.960Z,22.10
2022-09-09T02:52:52.027Z,22.10
2022-09-09T02:55:23.636Z,22.10
2022-09-09T02:57:51.778Z,22.10
2022-09-09T03:00:25.716Z,22.10
2022-09-09T03:02:55.581Z,22.10
2022-09-09T03:05:23.801Z,22.00
2022-09-09T03:07:52.052Z,22.10
2022-09-09T03:10:20.272Z,22.00
2022-09-09T03:12:48.449Z,22.00
2022-09-09T03:15:16.865Z,22.10
2022-09-09T03:17:45.058Z,22.10
2022-09-09T03:20:14.631Z,22.00
2022-09-09T03:22:42.844Z,22.00
2022-09-09T03:25:11.226Z,22.00
2022-09-09T03:27:39.456Z,22.00
2022-09-09T03:30:08.556Z,22.00
2022-09-09T03:32:36.720Z,22.00
2022-09-09T03:35:05.219Z,22.00
2022-09-09T03:37:34.758Z,22.00
2022-09-09T03:40:03.346Z,22.00
2022-09-09T03:42:31.931Z,22.00
2022-09-09T03:45:00.428Z,22.00
2022-09-09T03:47:29.787Z,22.00
2022-09-09T03:49:57.907Z,22.00
2022-09-09T03:52:27.376Z,22.00
2022-09-09T03:54:57.742Z,22.00
2022-09-09T03:57:26.001Z,22.00
2022-09-09T03:59:54.094Z,22.00
2022-09-09T04:02:22.560Z,22.00
2022-09-09T04:04:50.892Z,22.00
2022-09-09T04:07:19.103Z,22.00
2022-09-09T04:09:47.324Z,22.00
2022-09-09T04:12:17.703Z,22.00
2022-09-09T04:14:45.838Z,22.00
2022-09-09T04:17:14.017Z,22.00
2022-09-09T04:19:43.353Z,22.00
2022-09-09T04:22:11.567Z,22.00
2022-09-09T04:24:39.682Z,22.00
2022-09-09T04:27:07.852Z,22.00
2022-09-09T04:29:37.504Z,22.00
2022-09-09T04:32:06.339Z,22.00
2022-09-09T04:34:34.535Z,22.00
2022-09-09T04:37:02.657Z,22.00
2022-09-09T04:39:30.809Z,22.00
2022-09-09T04:41:59.052Z,21.90
2022-09-09T04:44:27.174Z,21.90
2022-09-09T04:46:56.729Z,22.00
2022-09-09T04:49:24.960Z,22.00
2022-09-09T04:51:53.105Z,22.00
2022-09-09T04:54:21.222Z,21.90
2022-09-09T04:56:49.379Z,22.00
2022-09-09T04:59:17.481Z,22.00
2022-09-09T05:01:45.756Z,22.00
2022-09-09T05:04:16.307Z,21.90
2022-09-09T05:06:44.452Z,21.90
2022-09-09T05:09:12.546Z,22.00
2022-09-09T05:11:40.722Z,21.90
2022-09-09T05:14:09.352Z,21.90
2022-09-09T05:16:37.561Z,21.90
2022-09-09T05:19:05.766Z,21.90
2022-09-09T05:21:35.296Z,21.90
2022-09-09T05:24:03.802Z,21.90
2022-09-09T05:26:32.614Z,21.90
2022-09-09T05:29:01.540Z,21.90
2022-09-09T05:31:31.466Z,21.90
2022-09-09T05:34:00.200Z,21.90
2022-09-09T05:36:28.432Z,21.90
2022-09-09T05:38:57.939Z,21.90
2022-09-09T05:41:26.080Z,21.90
2022-09-09T05:43:54.258Z,21.90
2022-09-09T05:46:22.979Z,21.90
2022-09-09T05:48:52.529Z,21.90
2022-09-09T05:51:22.853Z,21.90
2022-09-09T05:53:52.015Z,21.90
2022-09-09T05:56:22.909Z,21.90
2022-09-09T05:58:51.415Z,21.90
2022-09-09T06:01:20.899Z,21.90
2022-09-09T06:03:52.514Z,21.90
2022-09-09T06:06:22.443Z,21.90
2022-09-09T06:08:52.505Z,21.90
2022-09-09T06:11:22.859Z,21.90
2022-09-09T06:13:52.616Z,21.90
2022-09-09T06:16:21.241Z,21.90
2022-09-09T06:18:50.122Z,21.90
2022-09-09T06:21:18.976Z,21.90
2022-09-09T06:23:47.239Z,21.90
2022-09-09T06:26:16.228Z,21.90
2022-09-09T06:28:46.692Z,21.90
2022-09-09T06:31:16.207Z,21.90
2022-09-09T06:33:44.452Z,22.00
2022-09-09T06:36:13.405Z,22.00
2022-09-09T06:38:41.511Z,22.00
2022-09-09T06:41:10.301Z,22.00
2022-09-09T06:43:38.619Z,22.10
2022-09-09T06:46:09.274Z,22.10
2022-09-09T06:48:37.811Z,22.00
2022-09-09T06:51:06.305Z,22.10
2022-09-09T06:53:35.128Z,22.10
2022-09-09T06:56:03.462Z,22.00
2022-09-09T06:58:32.422Z,22.00
2022-09-09T07:01:05.270Z,22.10
2022-09-09T07:03:34.802Z,22.00
2022-09-09T07:06:02.942Z,22.10
2022-09-09T07:08:32.310Z,22.00
2022-09-09T07:11:10.221Z,22.10
2022-09-09T07:13:40.293Z,22.00
2022-09-09T07:16:09.005Z,22.10
2022-09-09T07:18:38.658Z,22.10
2022-09-09T07:21:07.553Z,22.10
2022-09-09T07:23:36.649Z,22.10
2022-09-09T07:26:05.317Z,22.20
2022-09-09T07:28:33.487Z,22.20
2022-09-09T07:31:03.375Z,22.10
2022-09-09T07:33:32.519Z,22.20
2022-09-09T07:36:06.824Z,22.20
2022-09-09T07:38:39.758Z,22.20
2022-09-09T07:41:10.288Z,22.20
2022-09-09T07:43:38.467Z,22.20
2022-09-09T07:46:07.018Z,22.30
2022-09-09T07:48:35.243Z,22.20
2022-09-09T07:51:09.847Z,22.20
2022-09-09T07:53:39.284Z,22.10
2022-09-09T07:56:08.570Z,22.20
2022-09-09T07:58:38.553Z,22.20
2022-09-09T08:01:11.288Z,22.10
2022-09-09T08:03:39.461Z,22.20
2022-09-09T08:06:10.043Z,22.10
2022-09-09T08:08:39.741Z,22.20
2022-09-09T08:11:10.064Z,22.20
2022-09-09T08:13:38.464Z,22.20
2022-09-09T08:16:09.934Z,22.10
2022-09-09T08:18:38.817Z,22.20
2022-09-09T08:21:10.021Z,22.20
2022-09-09T08:23:38.538Z,22.20
2022-09-09T08:26:12.641Z,22.20
2022-09-09T08:28:41.136Z,22.20
2022-09-09T08:31:10.819Z,22.20
2022-09-09T08:33:39.623Z,22.10
2022-09-09T08:36:10.702Z,22.20
2022-09-09T08:38:38.882Z,22.20
2022-09-09T08:41:20.659Z,22.10
2022-09-09T08:43:48.948Z,22.10
2022-09-09T08:46:19.156Z,22.20
2022-09-09T08:48:53.255Z,22.20
2022-09-09T08:51:22.780Z,22.20
2022-09-09T08:53:52.881Z,22.20
2022-09-09T08:56:24.022Z,22.30
2022-09-09T08:58:52.754Z,22.30
2022-09-09T09:01:29.525Z,22.30
2022-09-09T09:03:59.995Z,22.30
2022-09-09T09:06:44.432Z,22.30
2022-09-09T09:09:14.916Z,22.30
2022-09-09T09:11:46.168Z,22.30
2022-09-09T09:14:16.924Z,22.40
2022-09-09T09:16:50.165Z,22.40
2022-09-09T09:19:18.996Z,22.40
2022-09-09T09:21:51.651Z,22.40
2022-09-09T09:24:22.126Z,22.40
2022-09-09T09:26:50.730Z,22.50
2022-09-09T09:29:19.953Z,22.50
2022-09-09T09:31:49.207Z,22.50
2022-09-09T09:34:18.516Z,22.50
2022-09-09T09:36:49.085Z,22.50
2022-09-09T09:42:17.152Z,22.50
2022-09-09T09:44:47.059Z,22.50
2022-09-09T09:47:15.914Z,22.50
2022-09-09T09:49:53.568Z,22.50
2022-09-09T09:52:24.915Z,22.50
2022-09-09T09:54:53.951Z,22.50
2022-09-09T09:57:26.289Z,22.50
2022-09-09T10:00:04.411Z,22.50
2022-09-09T10:02:34.992Z,22.50
2022-09-09T10:05:04.633Z,22.50
2022-09-09T10:07:35.240Z,22.50
2022-09-09T10:10:03.418Z,22.50
2022-09-09T10:12:38.153Z,22.50
2022-09-09T10:15:09.611Z,22.50
2022-09-09T10:17:40.948Z,22.60
2022-09-09T10:20:20.966Z,22.60
2022-09-09T10:22:53.187Z,22.60
2022-09-09T10:25:26.146Z,22.60
2022-09-09T10:28:12.130Z,22.60
2022-09-09T10:30:45.116Z,22.70
2022-09-09T10:33:16.985Z,22.70
2022-09-09T10:35:47.494Z,22.70
2022-09-09T10:38:18.836Z,22.70
2022-09-09T10:41:21.589Z,22.70
2022-09-09T10:44:23.475Z,22.70
2022-09-09T10:47:16.347Z,22.70
2022-09-09T10:49:55.094Z,22.70
2022-09-09T10:52:25.193Z,22.70
2022-09-09T10:54:58.234Z,22.70
2022-09-09T10:57:31.387Z,22.70
2022-09-09T11:00:00.985Z,22.70
2022-09-09T11:02:29.764Z,22.70
2022-09-09T11:04:59.604Z,22.80
2022-09-09T11:07:31.024Z,22.80
2022-09-09T11:10:03.673Z,22.80
2022-09-09T11:12:32.689Z,22.80
2022-09-09T11:15:03.951Z,22.80
2022-09-09T11:17:34.966Z,22.80
2022-09-09T11:20:03.643Z,22.80
2022-09-09T11:22:33.061Z,22.80
2022-09-09T11:25:07.467Z,22.80
2022-09-09T11:27:39.802Z,22.80
2022-09-09T11:30:51.319Z,22.90
2022-09-09T11:33:33.401Z,22.80
2022-09-09T11:36:27.121Z,22.80
2022-09-09T11:38:55.625Z,22.90
2022-09-09T11:41:25.797Z,22.90
2022-09-09T11:43:54.444Z,22.90
2022-09-09T11:46:24.258Z,22.90
2022-09-09T11:49:01.621Z,22.90
2022-09-09T11:51:31.573Z,22.90
2022-09-09T11:54:02.409Z,22.90
2022-09-09T11:56:33.072Z,22.90
2022-09-09T11:59:04.041Z,22.90
2022-09-09T12:01:39.396Z,22.90
2022-09-09T12:04:32.709Z,22.90
2022-09-09T12:07:05.322Z,22.90
2022-09-09T12:09:43.425Z,22.80
2022-09-09T12:12:27.256Z,22.90
2022-09-09T12:15:03.669Z,22.80
2022-09-09T12:17:32.788Z,22.80
2022-09-09T12:20:13.651Z,22.80
2022-09-09T12:23:03.339Z,22.80
2022-09-09T12:25:37.167Z,22.80
2022-09-09T12:28:11.198Z,22.80
2022-09-09T12:30:43.743Z,22.80
2022-09-09T12:33:13.846Z,22.80
2022-09-09T12:35:42.298Z,22.80
2022-09-09T12:38:14.728Z,22.80
2022-09-09T12:40:43.005Z,22.80
2022-09-09T12:43:23.442Z,22.80
2022-09-09T12:45:57.725Z,22.80
2022-09-09T12:48:32.048Z,22.70
2022-09-09T12:51:01.416Z,22.70
2022-09-09T12:53:35.318Z,22.70
2022-09-09T12:56:09.692Z,22.70
2022-09-09T12:58:49.000Z,22.70
2022-09-09T13:01:23.070Z,22.70
2022-09-09T13:03:51.675Z,22.70
2022-09-09T13:06:29.159Z,22.70
2022-09-09T13:09:04.345Z,22.70
2022-09-09T13:11:40.432Z,22.70
2022-09-09T13:14:15.319Z,22.70
2022-09-09T13:16:43.733Z,22.70
2022-09-09T13:19:15.969Z,22.70
2022-09-09T13:21:44.752Z,22.70
2022-09-09T13:24:29.577Z,22.70
2022-09-09T13:26:58.790Z,22.70
2022-09-09T13:29:28.749Z,22.70
2022-09-09T13:31:58.226Z,22.70
2022-09-09T13:34:30.057Z,22.70
2022-09-09T13:37:02.611Z,22.70
2022-09-09T13:39:30.944Z,22.70
2022-09-09T13:41:59.869Z,22.70
2022-09-09T13:44:31.166Z,22.70
2022-09-09T13:47:06.859Z,22.70
2022-09-09T13:49:38.401Z,22.70
2022-09-09T13:52:08.574Z,22.70
2022-09-09T13:54:36.884Z,22.70
2022-09-09T13:57:05.730Z,22.60
2022-09-09T14:00:01.080Z,22.70
2022-09-09T14:02:26.294Z,22.70
2022-09-09T14:04:56.498Z,22.70
2022-09-09T14:07:24.801Z,22.70
2022-09-09T14:09:54.659Z,22.70
2022-09-09T14:12:23.150Z,22.70
2022-09-09T14:14:52.693Z,22.70
2022-09-09T14:17:20.890Z,22.70
2022-09-09T14:19:49.143Z,22.70
2022-09-09T14:22:18.221Z,22.70
2022-09-09T14:24:46.427Z,22.60
2022-09-09T14:27:14.590Z,22.70
2022-09-09T14:29:43.223Z,22.60
2022-09-09T14:32:13.049Z,22.60
2022-09-09T14:34:41.614Z,22.60
2022-09-09T14:37:09.755Z,22.70
2022-09-09T14:39:37.900Z,22.60
2022-09-09T14:42:06.761Z,22.70
2022-09-09T14:44:34.968Z,22.60
2022-09-09T14:47:03.194Z,22.60
2022-09-09T14:49:33.162Z,22.60
2022-09-09T14:52:01.374Z,22.60
2022-09-09T14:54:29.790Z,22.60
2022-09-09T14:56:58.936Z,22.60
2022-09-09T14:59:27.922Z,22.60
2022-09-09T15:01:56.617Z,22.60
2022-09-09T15:04:25.487Z,22.60
2022-09-09T15:06:55.106Z,22.60
2022-09-09T15:09:23.900Z,22.60
2022-09-09T15:11:52.027Z,22.60
2022-09-09T15:14:23.933Z,22.60
2022-09-09T15:16:53.953Z,22.60
2022-09-09T15:19:22.066Z,22.60
2022-09-09T15:21:50.238Z,22.60
2022-09-09T15:24:19.768Z,22.60
2022-09-09T15:26:47.944Z,22.60
2022-09-09T15:29:16.422Z,22.60
2022-09-09T15:31:44.907Z,22.60
2022-09-09T15:34:14.731Z,22.60
2022-09-09T15:36:43.921Z,22.50
2022-09-09T15:39:13.741Z,22.50
2022-09-09T15:41:43.459Z,22.50
2022-09-09T15:44:13.226Z,22.50
2022-09-09T15:46:42.207Z,22.60
2022-09-09T15:49:11.645Z,22.50
2022-09-09T15:51:43.289Z,22.50
2022-09-09T15:54:13.384Z,22.50
2022-09-09T15:56:43.134Z,22.50
2022-09-09T15:59:11.318Z,22.50
2022-09-09T16:01:41.855Z,22.50
2022-09-09T16:04:10.196Z,22.50
2022-09-09T16:06:38.463Z,22.50
2022-09-09T16:09:11.197Z,22.50
2022-09-09T16:11:39.912Z,22.50
2022-09-09T16:14:09.809Z,22.50
2022-09-09T16:16:37.981Z,22.50
2022-09-09T16:19:07.529Z,22.50
2022-09-09T16:21:36.980Z,22.50
2022-09-09T16:24:05.720Z,22.50
2022-09-09T16:26:34.909Z,22.50
2022-09-09T16:29:03.776Z,22.50
2022-09-09T16:31:34.174Z,22.50
2022-09-09T16:34:04.355Z,22.50
2022-09-09T16:36:33.378Z,22.50
2022-09-09T16:39:02.681Z,22.50
2022-09-09T16:41:31.382Z,22.50
2022-09-09T16:44:00.464Z,22.50
2022-09-09T16:46:29.397Z,22.50
2022-09-09T16:48:59.951Z,22.50
2022-09-09T16:51:29.377Z,22.40
2022-09-09T16:53:58.780Z,22.40
2022-09-09T16:56:27.618Z,22.40
2022-09-09T16:58:56.727Z,22.40
2022-09-09T17:01:25.144Z,22.40
2022-09-09T17:04:00.040Z,22.40
2022-09-09T17:06:30.973Z,22.40
2022-09-09T17:08:59.233Z,22.40
2022-09-09T17:11:27.691Z,22.40
2022-09-09T17:13:56.509Z,22.40
2022-09-09T17:16:25.579Z,22.40
2022-09-09T17:18:54.168Z,22.40
2022-09-09T17:21:23.244Z,22.40
2022-09-09T17:23:52.955Z,22.40
2022-09-09T17:26:22.887Z,22.40
2022-09-09T17:28:52.583Z,22.30
2022-09-09T17:31:22.353Z,22.30
2022-09-09T17:33:53.606Z,22.30
2022-09-09T17:36:23.343Z,22.30
2022-09-09T17:38:53.471Z,22.30
2022-09-09T17:41:23.973Z,22.30
2022-09-09T17:43:52.388Z,22.40
2022-09-09T17:46:22.714Z,22.40
2022-09-09T17:48:51.664Z,22.40
2022-09-09T17:51:21.264Z,22.50
2022-09-09T17:53:50.142Z,22.50
2022-09-09T17:56:21.043Z,22.50
2022-09-09T17:58:49.353Z,22.50
2022-09-09T18:01:18.558Z,22.50
2022-09-09T18:03:47.255Z,22.60
2022-09-09T18:06:17.622Z,22.60
2022-09-09T18:08:49.862Z,22.60
2022-09-09T18:11:19.548Z,22.60
2022-09-09T18:13:50.443Z,22.60
2022-09-09T18:16:19.279Z,22.60
2022-09-09T18:18:47.569Z,22.70
2022-09-09T18:21:15.802Z,22.70
2022-09-09T18:23:44.882Z,22.70
2022-09-09T18:26:14.107Z,22.70
2022-09-09T18:28:43.849Z,22.70
2022-09-09T18:31:13.445Z,22.70
2022-09-09T18:33:43.102Z,22.70
2022-09-09T18:36:12.625Z,22.70
2022-09-09T18:38:40.881Z,22.70
2022-09-09T18:41:16.105Z,22.70
2022-09-09T18:43:45.836Z,22.70
2022-09-09T18:46:14.299Z,22.70
2022-09-09T18:48:42.567Z,22.70
2022-09-09T18:51:11.390Z,22.70
2022-09-09T18:53:39.816Z,22.70
2022-09-09T18:56:09.094Z,22.70
2022-09-09T18:58:37.446Z,22.70
2022-09-09T19:01:09.722Z,22.70
2022-09-09T19:03:41.109Z,22.70
2022-09-09T19:06:10.626Z,22.70
2022-09-09T19:08:39.037Z,22.70
2022-09-09T19:11:08.697Z,22.70
2022-09-09T19:13:36.948Z,22.70
2022-09-09T19:16:07.713Z,22.70
2022-09-09T19:18:36.843Z,22.70
2022-09-09T19:21:12.653Z,22.70
2022-09-09T19:23:41.437Z,22.70
2022-09-09T19:26:11.099Z,22.70
2022-09-09T19:28:40.240Z,22.70
2022-09-09T19:31:10.627Z,22.70
2022-09-09T19:33:38.853Z,22.70
2022-09-09T19:36:09.299Z,22.70
2022-09-09T19:38:37.610Z,22.70
2022-09-09T19:41:06.203Z,22.70
2022-09-09T19:43:34.969Z,22.70
2022-09-09T19:46:04.572Z,22.70
2022-09-09T19:48:34.252Z,22.70
2022-09-09T19:51:04.056Z,22.70
2022-09-09T19:53:32.809Z,22.70
2022-09-09T19:56:01.008Z,22.70
2022-09-09T19:58:29.162Z,22.70
2022-09-09T20:00:57.413Z,22.70
2022-09-09T20:03:25.819Z,22.70
2022-09-09T20:05:55.400Z,22.70
2022-09-09T20:08:23.594Z,22.70
2022-09-09T20:10:53.161Z,22.70
2022-09-09T20:13:21.793Z,22.70
2022-09-09T20:15:57.867Z,22.70
2022-09-09T20:18:27.953Z,22.70
2022-09-09T20:21:00.830Z,22.70
2022-09-09T20:23:29.141Z,22.70
2022-09-09T20:25:57.376Z,22.60
2022-09-09T20:28:25.641Z,22.50
2022-09-09T20:30:53.961Z,22.50
2022-09-09T20:33:22.176Z,22.50
2022-09-09T20:35:50.507Z,22.50
2022-09-09T20:38:20.025Z,22.50
2022-09-09T20:40:48.329Z,22.50
2022-09-09T20:43:16.506Z,22.50
2022-09-09T20:45:44.653Z,22.50
2022-09-09T20:48:12.810Z,22.50
2022-09-09T20:50:40.949Z,22.50
2022-09-09T20:53:09.108Z,22.50
2022-09-09T20:55:38.614Z,22.60
2022-09-09T20:58:07.207Z,22.50
2022-09-09T21:00:36.101Z,22.50
2022-09-09T21:03:04.226Z,22.50
2022-09-09T21:05:34.433Z,22.50
2022-09-09T21:08:03.133Z,22.50
2022-09-09T21:10:32.330Z,22.50
2022-09-09T21:13:01.933Z,22.50
2022-09-09T21:15:30.326Z,22.50
2022-09-09T21:17:59.123Z,22.50
2022-09-09T21:20:27.283Z,22.50
2022-09-09T21:22:55.437Z,22.50
2022-09-09T21:25:24.298Z,22.50
2022-09-09T21:27:52.467Z,22.50
2022-09-09T21:30:28.665Z,22.50
2022-09-09T21:33:01.598Z,22.50
2022-09-09T21:35:29.747Z,22.50
2022-09-09T21:37:58.401Z,22.50
2022-09-09T21:40:26.536Z,22.50
2022-09-09T21:42:54.646Z,22.50
2022-09-09T21:45:25.421Z,22.50
2022-09-09T21:47:53.568Z,22.50
2022-09-09T21:50:26.662Z,22.50
2022-09-09T21:52:56.559Z,22.50
2022-09-09T21:55:24.713Z,22.50
2022-09-09T21:57:52.897Z,22.50
2022-09-09T22:00:21.007Z,22.50
2022-09-09T22:02:50.528Z,22.50
2022-09-09T22:05:18.772Z,22.50
2022-09-09T22:07:46.915Z,22.50
2022-09-09T22:10:15.040Z,22.50
2022-09-09T22:12:43.176Z,22.50
2022-09-09T22:15:14.289Z,22.50
2022-09-09T22:17:42.456Z,22.50
2022-09-09T22:20:12.985Z,22.50
2022-09-09T22:22:41.119Z,22.50
2022-09-09T22:25:09.925Z,22.50
2022-09-09T22:27:38.044Z,22.50
2022-09-09T22:30:07.219Z,22.50
2022-09-09T22:32:35.386Z,22.50
2022-09-09T22:35:03.558Z,22.50
2022-09-09T22:37:33.135Z,22.50
2022-09-09T22:40:01.474Z,22.50
2022-09-09T22:42:30.476Z,22.50
2022-09-09T22:44:58.596Z,22.50
2022-09-09T22:47:26.810Z,22.50
2022-09-09T22:49:54.959Z,22.50
2022-09-09T22:52:23.501Z,22.50
2022-09-09T22:54:53.254Z,22.50
2022-09-09T22:57:21.425Z,22.50
2022-09-09T22:59:49.529Z,22.50
2022-09-09T23:02:17.778Z,22.50
2022-09-09T23:04:46.108Z,22.40
2022-09-09T23:07:14.301Z,22.50
2022-09-09T23:09:42.466Z,22.50
2022-09-09T23:12:12.142Z,22.40
2022-09-09T23:14:40.363Z,22.50
2022-09-09T23:17:08.856Z,22.50
2022-09-09T23:19:37.345Z,22.50
2022-09-09T23:22:06.069Z,22.50
2022-09-09T23:24:34.791Z,22.40
2022-09-09T23:27:02.888Z,22.40
2022-09-09T23:29:32.403Z,22.40
2022-09-09T23:32:00.493Z,22.40
2022-09-09T23:34:28.638Z,22.50
2022-09-09T23:36:57.631Z,22.40
2022-09-09T23:39:26.042Z,22.40
2022-09-09T23:41:54.150Z,22.40
2022-09-09T23:44:22.282Z,22.40
2022-09-09T23:46:51.841Z,22.40
2022-09-09T23:49:19.997Z,22.40
2022-09-09T23:51:49.777Z,22.40
2022-09-09T23:54:17.917Z,22.40
2022-09-09T23:56:46.041Z,22.40
2022-09-09T23:59:14.225Z,22.40
